createdAt,value
2022-11-27T00:02:08.718Z,1.60
2022-11-27T00:04:35.398Z,1.60
2022-11-27T00:07:02.101Z,1.60
2022-11-27T00:09:28.770Z,1.50
2022-11-27T00:11:55.518Z,1.50
2022-11-27T00:14:22.167Z,1.60
2022-11-27T00:16:48.920Z,1.60
2022-11-27T00:19:15.609Z,4.40
2022-11-27T00:21:42.297Z,1.60
2022-11-27T00:24:09.404Z,1.60
2022-11-27T00:26:38.168Z,1.90
2022-11-27T00:29:05.459Z,1.60
2022-11-27T00:31:33.110Z,1.60
2022-11-27T00:34:01.579Z,2.50
2022-11-27T00:36:29.159Z,1.50
2022-11-27T00:38:56.054Z,2.90
2022-11-27T00:41:24.595Z,1.40
2022-11-27T00:43:51.848Z,1.40
2022-11-27T00:46:22.819Z,4.10
2022-11-27T00:48:53.567Z,1.40
2022-11-27T00:51:21.699Z,1.50
2022-11-27T00:53:48.694Z,2.30
2022-11-27T00:56:26.030Z,1.60
2022-11-27T00:58:52.963Z,1.50
2022-11-27T01:01:21.587Z,1.40
2022-11-27T01:03:48.556Z,1.40
2022-11-27T01:06:15.952Z,1.50
2022-11-27T01:08:42.675Z,3.40
2022-11-27T01:11:16.932Z,1.30
2022-11-27T01:13:44.072Z,1.30
2022-11-27T01:16:15.689Z,1.30
2022-11-27T01:18:43.594Z,1.30
2022-11-27T01:21:11.039Z,1.30
2022-11-27T01:23:37.805Z,1.30
2022-11-27T01:26:05.548Z,1.40
2022-11-27T01:28:32.422Z,1.30
2022-11-27T01:30:59.489Z,1.30
2022-11-27T01:33:26.118Z,1.20
2022-11-27T01:35:56.612Z,1.30
2022-11-27T01:38:23.430Z,1.20
2022-11-27T01:40:55.765Z,1.20
2022-11-27T01:43:41.893Z,1.30
2022-11-27T01:46:32.358Z,1.20
2022-11-27T01:49:05.096Z,1.30
2022-11-27T01:51:31.837Z,1.40
2022-11-27T01:53:58.788Z,1.30
2022-11-27T01:56:26.667Z,1.30
2022-11-27T01:58:53.531Z,1.30
2022-11-27T02:01:20.319Z,1.30
2022-11-27T02:03:47.039Z,1.30
2022-11-27T02:06:13.945Z,1.50
2022-11-27T02:08:41.688Z,1.30
2022-11-27T02:11:31.796Z,1.30
2022-11-27T02:14:18.750Z,1.30
2022-11-27T02:16:45.513Z,1.20
2022-11-27T02:19:30.919Z,2.20
2022-11-27T02:22:01.001Z,1.10
2022-11-27T02:24:30.705Z,1.10
2022-11-27T02:27:04.003Z,1.10
2022-11-27T02:29:34.494Z,1.20
2022-11-27T02:32:01.134Z,1.20
2022-11-27T02:34:37.867Z,1.20
2022-11-27T02:37:19.072Z,1.20
2022-11-27T02:39:57.357Z,1.10
2022-11-27T02:42:24.815Z,1.00
2022-11-27T02:44:57.052Z,0.90
2022-11-27T02:47:24.016Z,0.90
2022-11-27T02:49:51.584Z,1.00
2022-11-27T02:52:19.242Z,1.00
2022-11-27T02:54:48.141Z,1.00
2022-11-27T02:57:16.062Z,1.00
2022-11-27T02:59:43.728Z,1.00
2022-11-27T03:02:13.760Z,1.00
2022-11-27T03:04:46.952Z,1.00
2022-11-27T03:07:17.318Z,1.00
2022-11-27T03:09:46.240Z,1.00
2022-11-27T03:12:13.501Z,0.90
2022-11-27T03:14:42.311Z,2.30
2022-11-27T03:17:09.130Z,0.80
2022-11-27T03:19:42.926Z,0.80
2022-11-27T03:22:10.749Z,0.90
2022-11-27T03:24:37.574Z,1.00
2022-11-27T03:27:04.553Z,1.00
2022-11-27T03:29:31.356Z,1.00
2022-11-27T03:31:58.186Z,1.80
2022-11-27T03:34:25.368Z,0.90
2022-11-27T03:36:52.024Z,0.80
2022-11-27T03:39:19.357Z,0.70
2022-11-27T03:41:46.001Z,0.70
2022-11-27T03:44:32.203Z,0.60
2022-11-27T03:47:10.611Z,0.60
2022-11-27T03:49:43.327Z,0.60
2022-11-27T03:52:09.928Z,1.80
2022-11-27T03:54:55.224Z,0.80
2022-11-27T03:57:28.946Z,0.50
2022-11-27T03:59:56.697Z,0.40
2022-11-27T04:02:31.793Z,0.40
2022-11-27T04:04:58.752Z,0.40
2022-11-27T04:07:25.531Z,0.40
2022-11-27T04:09:52.204Z,0.50
2022-11-27T04:12:18.847Z,0.60
2022-11-27T04:14:45.471Z,0.60
2022-11-27T04:17:12.189Z,0.50
2022-11-27T04:19:38.801Z,1.20
2022-11-27T04:22:05.626Z,0.60
2022-11-27T04:24:32.287Z,0.60
2022-11-27T04:26:59.004Z,0.70
2022-11-27T04:29:25.791Z,0.60
2022-11-27T04:31:52.549Z,-1.60
2022-11-27T04:34:19.244Z,0.60
2022-11-27T04:36:46.274Z,0.50
2022-11-27T04:39:13.382Z,0.40
2022-11-27T04:41:40.296Z,0.30
2022-11-27T04:44:07.050Z,0.30
2022-11-27T04:46:33.844Z,0.20
2022-11-27T04:49:00.509Z,0.20
2022-11-27T04:51:27.240Z,0.20
2022-11-27T04:53:53.915Z,1.70
2022-11-27T04:56:20.568Z,0.20
2022-11-27T04:58:47.425Z,2.60
2022-11-27T05:01:14.316Z,0.10
2022-11-27T05:03:40.986Z,0.10
2022-11-27T05:06:07.772Z,0.10
2022-11-27T05:08:34.473Z,2.10
2022-11-27T05:11:08.382Z,0.10
2022-11-27T05:13:35.121Z,0.10
2022-11-27T05:16:02.067Z,0.20
2022-11-27T05:18:28.862Z,0.30
2022-11-27T05:20:59.480Z,0.40
2022-11-27T05:23:26.245Z,0.40
2022-11-27T05:25:53.249Z,0.40
2022-11-27T05:28:25.185Z,0.30
2022-11-27T05:30:53.431Z,0.40
2022-11-27T05:33:20.042Z,0.30
2022-11-27T05:35:46.710Z,0.30
2022-11-27T05:38:13.352Z,0.20
2022-11-27T05:40:39.993Z,2.20
2022-11-27T05:43:07.155Z,0.10
2022-11-27T05:45:33.899Z,0.00
2022-11-27T05:48:00.639Z,-0.10
2022-11-27T05:50:27.282Z,-0.10
2022-11-27T05:52:53.941Z,0.50
2022-11-27T05:55:20.590Z,-0.10
2022-11-27T05:57:47.245Z,-0.10
2022-11-27T06:00:14.298Z,-0.10
2022-11-27T06:02:41.132Z,-0.20
2022-11-27T06:05:08.472Z,-0.20
2022-11-27T06:07:35.243Z,-0.30
2022-11-27T06:10:01.874Z,-0.40
2022-11-27T06:12:28.524Z,-0.50
2022-11-27T06:14:55.174Z,-0.50
2022-11-27T06:17:21.796Z,-0.50
2022-11-27T06:19:48.464Z,-0.50
2022-11-27T06:22:15.111Z,-0.10
2022-11-27T06:24:42.058Z,-0.60
2022-11-27T06:27:09.087Z,-0.60
2022-11-27T06:29:36.614Z,-0.60
2022-11-27T06:32:03.390Z,-0.60
2022-11-27T06:34:30.414Z,-0.70
2022-11-27T06:36:57.141Z,-0.60
2022-11-27T06:39:23.795Z,1.40
2022-11-27T06:41:50.471Z,-0.50
2022-11-27T06:44:17.127Z,-0.30
2022-11-27T06:46:43.766Z,-0.30
2022-11-27T06:49:10.392Z,-0.20
2022-11-27T06:51:37.002Z,-0.20
2022-11-27T06:54:03.822Z,-0.10
2022-11-27T06:56:31.271Z,-0.20
2022-11-27T06:58:58.729Z,-0.20
2022-11-27T07:01:26.318Z,-0.30
2022-11-27T07:03:53.022Z,-0.40
2022-11-27T07:06:20.846Z,-0.50
2022-11-27T07:08:47.588Z,-0.40
2022-11-27T07:11:15.733Z,-0.50
2022-11-27T07:13:42.432Z,-0.50
2022-11-27T07:16:09.874Z,-0.40
2022-11-27T07:18:37.693Z,-0.50
2022-11-27T07:21:04.467Z,-0.50
2022-11-27T07:23:31.124Z,-0.50
2022-11-27T07:25:57.949Z,-0.40
2022-11-27T07:28:24.814Z,-0.50
2022-11-27T07:30:55.647Z,-0.60
2022-11-27T07:33:22.962Z,-0.50
2022-11-27T07:35:49.989Z,-0.30
2022-11-27T07:38:16.646Z,-0.10
2022-11-27T07:40:43.318Z,0.00
2022-11-27T07:43:10.044Z,1.00
2022-11-27T07:45:36.746Z,0.20
2022-11-27T07:48:03.492Z,0.20
2022-11-27T07:50:30.258Z,0.10
2022-11-27T07:52:56.893Z,0.10
2022-11-27T07:55:23.538Z,0.10
2022-11-27T07:57:50.183Z,0.00
2022-11-27T08:00:17.118Z,0.10
2022-11-27T08:02:43.892Z,0.20
2022-11-27T08:05:12.936Z,0.30
2022-11-27T08:07:39.862Z,0.30
2022-11-27T08:10:06.902Z,0.40
2022-11-27T08:12:33.530Z,0.30
2022-11-27T08:15:00.216Z,0.30
2022-11-27T08:17:26.897Z,0.30
2022-11-27T08:19:53.521Z,0.20
2022-11-27T08:22:20.729Z,0.20
2022-11-27T08:24:48.167Z,0.20
2022-11-27T08:27:15.760Z,0.20
2022-11-27T08:29:42.383Z,0.30
2022-11-27T08:32:09.104Z,0.50
2022-11-27T08:34:35.956Z,0.50
2022-11-27T08:37:04.060Z,0.50
2022-11-27T08:39:30.626Z,0.60
2022-11-27T08:41:57.228Z,0.50
2022-11-27T08:44:23.871Z,0.60
2022-11-27T08:46:50.536Z,0.60
2022-11-27T08:49:17.106Z,0.80
2022-11-27T08:51:43.725Z,0.80
2022-11-27T08:54:10.291Z,0.90
2022-11-27T08:56:37.011Z,0.90
2022-11-27T08:59:03.709Z,1.00
2022-11-27T09:01:31.648Z,1.00
2022-11-27T09:03:59.226Z,1.10
2022-11-27T09:06:31.206Z,1.10
2022-11-27T09:08:58.324Z,1.20
2022-11-27T09:11:24.968Z,1.30
2022-11-27T09:13:51.632Z,2.00
2022-11-27T09:16:19.494Z,1.30
2022-11-27T09:18:47.390Z,1.40
2022-11-27T09:21:14.493Z,1.40
2022-11-27T09:23:41.504Z,1.30
2022-11-27T09:26:12.706Z,1.40
2022-11-27T09:28:39.705Z,1.30
2022-11-27T09:31:07.335Z,1.40
2022-11-27T09:33:35.531Z,1.40
2022-11-27T09:36:06.406Z,1.50
2022-11-27T09:38:33.029Z,1.50
2022-11-27T09:41:07.038Z,1.50
2022-11-27T09:43:40.243Z,1.60
2022-11-27T09:46:12.114Z,1.60
2022-11-27T09:48:41.106Z,1.70
2022-11-27T09:51:15.082Z,1.80
2022-11-27T09:53:44.724Z,1.80
2022-11-27T09:56:12.660Z,1.90
2022-11-27T09:58:43.835Z,2.00
2022-11-27T10:01:15.372Z,2.00
2022-11-27T10:03:42.859Z,2.10
2022-11-27T10:06:12.220Z,2.30
2022-11-27T10:08:52.516Z,2.40
2022-11-27T10:11:30.584Z,2.50
2022-11-27T10:14:16.948Z,2.60
2022-11-27T10:16:44.831Z,2.70
2022-11-27T10:19:32.064Z,2.80
2022-11-27T10:22:04.888Z,2.90
2022-11-27T10:24:31.576Z,2.90
2022-11-27T10:26:59.013Z,3.00
2022-11-27T10:29:47.304Z,2.90
2022-11-27T10:32:46.925Z,2.90
2022-11-27T10:35:12.888Z,2.80
2022-11-27T10:37:39.490Z,2.90
2022-11-27T10:40:07.427Z,2.90
2022-11-27T10:42:43.445Z,2.80
2022-11-27T10:45:20.844Z,2.90
2022-11-27T10:47:48.364Z,3.00
2022-11-27T10:50:16.132Z,3.10
2022-11-27T10:53:03.016Z,3.10
2022-11-27T10:55:48.173Z,3.10
2022-11-27T10:58:38.025Z,3.20
2022-11-27T11:01:07.015Z,3.30
2022-11-27T11:03:33.933Z,3.30
2022-11-27T11:06:19.861Z,3.50
2022-11-27T11:08:48.274Z,5.20
2022-11-27T11:11:24.908Z,3.90
2022-11-27T11:13:51.694Z,4.10
2022-11-27T11:16:24.337Z,4.30
2022-11-27T11:18:52.565Z,4.40
2022-11-27T11:21:32.387Z,4.50
2022-11-27T11:24:06.763Z,4.60
2022-11-27T11:26:39.002Z,4.70
2022-11-27T11:29:17.977Z,4.80
2022-11-27T11:31:44.877Z,4.90
2022-11-27T11:34:22.554Z,5.00
2022-11-27T11:36:54.977Z,5.00
2022-11-27T11:39:26.672Z,5.00
2022-11-27T11:41:53.344Z,5.10
2022-11-27T11:44:25.838Z,5.90
2022-11-27T11:46:53.747Z,5.30
2022-11-27T11:49:24.882Z,5.30
2022-11-27T11:52:02.645Z,5.30
2022-11-27T11:54:43.686Z,5.40
2022-11-27T11:57:33.493Z,5.40
2022-11-27T12:00:03.938Z,5.40
2022-11-27T12:02:39.013Z,5.40
2022-11-27T12:05:24.931Z,5.40
2022-11-27T12:08:10.688Z,5.40
2022-11-27T12:10:55.859Z,5.50
2022-11-27T12:13:33.321Z,5.50
2022-11-27T12:16:13.677Z,5.50
2022-11-27T12:18:58.837Z,5.50
2022-11-27T12:21:48.850Z,5.50
2022-11-27T12:24:26.994Z,5.50
2022-11-27T12:26:53.576Z,5.60
2022-11-27T12:29:33.788Z,5.60
2022-11-27T12:32:03.545Z,5.60
2022-11-27T12:34:40.326Z,5.70
2022-11-27T12:37:26.166Z,5.70
2022-11-27T12:39:52.718Z,5.80
2022-11-27T12:42:25.438Z,5.90
2022-11-27T12:45:00.345Z,5.90
2022-11-27T12:47:43.348Z,5.90
2022-11-27T12:50:23.339Z,5.90
2022-11-27T12:53:00.447Z,5.90
2022-11-27T12:55:29.022Z,6.00
2022-11-27T12:58:04.265Z,6.10
2022-11-27T13:00:32.046Z,6.20
2022-11-27T13:03:08.362Z,6.40
2022-11-27T13:05:43.983Z,6.40
2022-11-27T13:08:14.206Z,6.40
2022-11-27T13:10:47.363Z,7.00
2022-11-27T13:13:27.887Z,6.40
2022-11-27T13:15:54.652Z,6.40
2022-11-27T13:18:23.807Z,6.30
2022-11-27T13:20:52.775Z,6.20
2022-11-27T13:23:20.624Z,6.20
2022-11-27T13:25:49.468Z,6.10
2022-11-27T13:28:22.116Z,8.00
2022-11-27T13:30:49.284Z,6.10
2022-11-27T13:33:42.360Z,6.90
2022-11-27T13:36:19.175Z,6.00
2022-11-27T13:38:46.456Z,6.00
2022-11-27T13:41:20.469Z,5.90
2022-11-27T13:43:47.650Z,7.10
2022-11-27T13:46:28.367Z,6.00
2022-11-27T13:49:00.671Z,6.00
2022-11-27T13:51:29.006Z,6.00
2022-11-27T13:54:07.159Z,6.00
2022-11-27T13:56:34.014Z,6.00
2022-11-27T13:59:00.643Z,6.00
2022-11-27T14:01:27.339Z,6.00
2022-11-27T14:03:54.034Z,6.00
2022-11-27T14:06:28.791Z,5.90
2022-11-27T14:08:59.623Z,5.90
2022-11-27T14:11:31.275Z,5.90
2022-11-27T14:13:58.799Z,5.80
2022-11-27T14:16:26.296Z,6.90
2022-11-27T14:18:53.988Z,5.80
2022-11-27T14:21:25.025Z,5.70
2022-11-27T14:23:52.909Z,5.70
2022-11-27T14:26:21.064Z,5.70
2022-11-27T14:28:58.303Z,5.70
2022-11-27T14:31:35.835Z,4.80
2022-11-27T14:34:20.796Z,5.70
2022-11-27T14:36:51.957Z,5.80
2022-11-27T14:39:22.786Z,5.60
2022-11-27T14:41:56.265Z,5.60
2022-11-27T14:44:22.995Z,5.60
2022-11-27T14:46:51.138Z,5.50
2022-11-27T14:49:18.758Z,5.50
2022-11-27T14:51:45.865Z,6.50
2022-11-27T14:54:18.517Z,5.50
2022-11-27T14:56:45.693Z,5.40
2022-11-27T14:59:16.739Z,5.40
2022-11-27T15:01:43.972Z,5.30
2022-11-27T15:04:27.091Z,5.30
2022-11-27T15:06:54.723Z,5.20
2022-11-27T15:09:31.718Z,7.10
2022-11-27T15:12:14.163Z,5.20
2022-11-27T15:14:45.115Z,5.10
2022-11-27T15:17:16.083Z,4.90
2022-11-27T15:19:43.478Z,5.70
2022-11-27T15:22:15.775Z,6.20
2022-11-27T15:24:42.356Z,5.80
2022-11-27T15:27:15.103Z,4.90
2022-11-27T15:29:44.437Z,4.90
2022-11-27T15:32:23.146Z,4.80
2022-11-27T15:34:50.807Z,4.80
2022-11-27T15:37:22.617Z,4.80
2022-11-27T15:39:51.772Z,4.70
2022-11-27T15:42:19.074Z,5.80
2022-11-27T15:44:46.451Z,4.70
2022-11-27T15:47:48.638Z,4.70
2022-11-27T15:50:16.339Z,4.70
2022-11-27T15:52:42.993Z,5.50
2022-11-27T15:55:14.117Z,4.70
2022-11-27T15:57:40.807Z,4.60
2022-11-27T16:00:10.034Z,4.70
2022-11-27T16:02:37.219Z,4.60
2022-11-27T16:05:04.967Z,4.60
2022-11-27T16:07:31.612Z,4.60
2022-11-27T16:09:58.258Z,5.60
2022-11-27T16:12:24.935Z,4.60
2022-11-27T16:14:51.569Z,4.60
2022-11-27T16:17:18.199Z,4.60
2022-11-27T16:19:44.856Z,4.60
2022-11-27T16:22:11.620Z,4.60
2022-11-27T16:24:38.473Z,4.60
2022-11-27T16:27:06.254Z,4.60
2022-11-27T16:29:33.011Z,4.60
2022-11-27T16:31:59.705Z,4.50
2022-11-27T16:34:26.301Z,5.10
2022-11-27T16:36:52.933Z,4.50
2022-11-27T16:39:19.555Z,4.50
2022-11-27T16:41:46.181Z,4.50
2022-11-27T16:44:13.638Z,4.40
2022-11-27T16:46:41.016Z,4.40
2022-11-27T16:49:07.687Z,4.40
2022-11-27T16:51:35.119Z,4.40
2022-11-27T16:54:03.218Z,5.70
2022-11-27T16:56:30.651Z,4.30
2022-11-27T16:59:02.795Z,4.30
2022-11-27T17:01:31.728Z,4.30
2022-11-27T17:03:59.607Z,4.30
2022-11-27T17:06:27.327Z,4.30
2022-11-27T17:08:54.619Z,4.30
2022-11-27T17:11:22.285Z,4.30
2022-11-27T17:13:49.479Z,4.30
2022-11-27T17:16:16.501Z,4.30
2022-11-27T17:18:43.631Z,4.30
2022-11-27T17:21:11.665Z,6.00
2022-11-27T17:23:38.458Z,4.90
2022-11-27T17:26:08.756Z,4.30
2022-11-27T17:28:35.835Z,4.20
2022-11-27T17:31:02.464Z,4.20
2022-11-27T17:33:29.145Z,4.20
2022-11-27T17:35:55.708Z,4.20
2022-11-27T17:38:22.360Z,4.20
2022-11-27T17:40:49.011Z,4.20
2022-11-27T17:43:15.642Z,4.10
2022-11-27T17:45:42.462Z,4.20
2022-11-27T17:48:09.144Z,4.10
2022-11-27T17:50:35.925Z,5.60
2022-11-27T17:53:02.725Z,4.10
2022-11-27T17:55:29.362Z,4.50
2022-11-27T17:57:56.032Z,4.10
2022-11-27T18:00:22.631Z,4.00
2022-11-27T18:02:49.258Z,4.00
2022-11-27T18:05:15.837Z,4.00
2022-11-27T18:07:42.635Z,4.00
2022-11-27T18:10:09.528Z,4.00
2022-11-27T18:12:36.225Z,3.90
2022-11-27T18:15:03.625Z,3.90
2022-11-27T18:17:30.342Z,3.90
2022-11-27T18:19:58.956Z,3.80
2022-11-27T18:22:25.711Z,3.90
2022-11-27T18:24:52.451Z,3.80
2022-11-27T18:27:19.056Z,3.90
2022-11-27T18:29:45.993Z,3.90
2022-11-27T18:32:13.924Z,3.90
2022-11-27T18:34:41.096Z,4.00
2022-11-27T18:37:07.890Z,4.00
2022-11-27T18:39:35.322Z,4.00
2022-11-27T18:42:03.282Z,4.00
2022-11-27T18:44:29.960Z,4.00
2022-11-27T18:46:56.747Z,4.10
2022-11-27T18:49:23.786Z,4.10
2022-11-27T18:51:50.779Z,4.10
2022-11-27T18:54:17.423Z,4.20
2022-11-27T18:56:44.052Z,4.10
2022-11-27T18:59:10.685Z,4.70
2022-11-27T19:01:42.072Z,4.10
2022-11-27T19:04:10.494Z,5.30
2022-11-27T19:06:37.934Z,4.30
2022-11-27T19:09:04.942Z,4.00
2022-11-27T19:11:32.666Z,4.00
2022-11-27T19:13:59.702Z,4.00
2022-11-27T19:16:31.492Z,4.00
2022-11-27T19:18:58.663Z,4.00
2022-11-27T19:21:26.883Z,4.00
2022-11-27T19:23:53.924Z,5.50
2022-11-27T19:26:22.784Z,4.00
2022-11-27T19:28:50.305Z,4.00
2022-11-27T19:31:16.965Z,4.00
2022-11-27T19:33:44.141Z,4.00
2022-11-27T19:36:12.041Z,4.00
2022-11-27T19:38:39.607Z,3.90
2022-11-27T19:41:13.538Z,3.90
2022-11-27T19:43:40.318Z,3.80
2022-11-27T19:46:17.069Z,3.80
2022-11-27T19:48:43.793Z,3.80
2022-11-27T19:51:10.813Z,6.00
2022-11-27T19:53:37.565Z,3.70
2022-11-27T19:56:04.547Z,3.70
2022-11-27T19:58:31.223Z,3.60
2022-11-27T20:01:24.252Z,3.70
2022-11-27T20:03:52.396Z,3.70
2022-11-27T20:06:20.651Z,3.70
2022-11-27T20:08:48.597Z,3.70
2022-11-27T20:11:17.972Z,4.70
2022-11-27T20:13:44.886Z,5.00
2022-11-27T20:16:13.042Z,3.80
2022-11-27T20:18:39.908Z,3.70
2022-11-27T20:21:08.420Z,3.90
2022-11-27T20:23:35.643Z,3.80
2022-11-27T20:26:06.609Z,3.80
2022-11-27T20:28:33.491Z,3.80
2022-11-27T20:31:01.804Z,3.80
2022-11-27T20:33:28.756Z,3.90
2022-11-27T20:35:55.794Z,3.90
2022-11-27T20:38:23.045Z,3.90
2022-11-27T20:40:50.458Z,3.90
2022-11-27T20:43:17.243Z,3.90
2022-11-27T20:45:43.997Z,3.90
2022-11-27T20:48:10.964Z,3.80
2022-11-27T20:50:38.898Z,3.80
2022-11-27T20:53:06.094Z,3.80
2022-11-27T20:55:33.507Z,3.80
2022-11-27T20:58:00.161Z,3.90
2022-11-27T21:00:27.073Z,3.80
2022-11-27T21:02:53.833Z,3.80
2022-11-27T21:05:20.468Z,3.80
2022-11-27T21:07:47.186Z,3.90
2022-11-27T21:10:15.388Z,3.90
2022-11-27T21:12:42.177Z,4.40
2022-11-27T21:15:09.465Z,3.90
2022-11-27T21:17:36.529Z,3.90
2022-11-27T21:20:04.513Z,4.00
2022-11-27T21:22:31.856Z,3.90
2022-11-27T21:24:58.624Z,3.90
2022-11-27T21:27:25.357Z,4.00
2022-11-27T21:29:52.011Z,3.90
2022-11-27T21:32:22.569Z,3.90
2022-11-27T21:34:49.548Z,3.90
2022-11-27T21:37:16.288Z,3.90
2022-11-27T21:39:44.803Z,3.90
2022-11-27T21:42:11.493Z,3.90
2022-11-27T21:44:41.323Z,3.90
2022-11-27T21:47:12.124Z,3.90
2022-11-27T21:49:39.443Z,4.00
2022-11-27T21:52:06.680Z,5.90
2022-11-27T21:54:33.517Z,3.90
2022-11-27T21:57:00.315Z,3.90
2022-11-27T21:59:27.085Z,3.80
2022-11-27T22:01:54.031Z,3.80
2022-11-27T22:04:21.361Z,5.30
2022-11-27T22:06:48.311Z,3.90
2022-11-27T22:09:16.226Z,3.90
2022-11-27T22:11:43.703Z,4.70
2022-11-27T22:14:10.350Z,4.00
2022-11-27T22:16:44.420Z,4.00
2022-11-27T22:19:11.701Z,4.00
2022-11-27T22:21:38.341Z,4.00
2022-11-27T22:24:05.061Z,4.00
2022-11-27T22:26:31.755Z,4.00
2022-11-27T22:28:58.654Z,4.00
2022-11-27T22:31:29.909Z,4.10
2022-11-27T22:33:56.883Z,4.00
2022-11-27T22:36:28.025Z,4.00
2022-11-27T22:38:55.152Z,4.00
2022-11-27T22:41:22.761Z,4.10
2022-11-27T22:43:49.913Z,4.00
2022-11-27T22:46:18.511Z,4.00
2022-11-27T22:48:45.344Z,4.00
2022-11-27T22:51:12.219Z,4.00
2022-11-27T22:53:39.307Z,4.00
2022-11-27T22:56:06.983Z,4.00
2022-11-27T22:58:36.100Z,3.90
2022-11-27T23:01:06.670Z,4.00
2022-11-27T23:03:33.442Z,3.90
2022-11-27T23:06:00.447Z,3.90
2022-11-27T23:08:27.111Z,3.90
2022-11-27T23:10:53.714Z,3.90
2022-11-27T23:13:20.393Z,3.80
2022-11-27T23:15:47.047Z,3.80
2022-11-27T23:18:13.787Z,3.80
2022-11-27T23:20:43.766Z,3.90
2022-11-27T23:23:11.069Z,3.80
2022-11-27T23:25:38.052Z,3.40
2022-11-27T23:28:04.967Z,3.80
2022-11-27T23:30:32.481Z,3.70
2022-11-27T23:32:59.241Z,3.70
2022-11-27T23:35:25.988Z,3.70
2022-11-27T23:37:52.633Z,3.70
2022-11-27T23:40:20.143Z,3.70
2022-11-27T23:42:46.757Z,3.70
2022-11-27T23:45:13.468Z,3.70
2022-11-27T23:47:40.094Z,3.60
2022-11-27T23:50:07.369Z,3.60
2022-11-27T23:52:34.306Z,3.50
2022-11-27T23:55:00.980Z,3.50
2022-11-27T23:57:27.674Z,3.50
2022-11-27T23:59:54.300Z,3.60
